Terminal Aerodrome Forecast
Issued by NWS

Home | Current Version | Previous Version | Text Only | Print | Product List | Glossary Off
Versions: 1 2 3 4 5 6 7 8 9 10 11 12 13 14 15 16 17 18 19

000
FTUS43 KFGF 192200 AAA
TAFBJI
TAF AMD
KBJI 192201Z 1922/2018 16010KT 2SM BR OVC003
      TEMPO 1922/2002 1 1/2SM -SN BR
     FM200200 15006KT 2SM BR OVC002=

USA.gov is the U.S. government's official web portal to all federal, state and local government web resources and services.